createdAt,value
2022-07-27T00:05:11.204Z,0
2022-07-27T00:14:48.750Z,0
2022-07-27T00:24:26.493Z,0
2022-07-27T00:34:03.791Z,0
2022-07-27T00:43:41.051Z,0
2022-07-27T00:53:18.521Z,0
2022-07-27T01:02:57.170Z,0
2022-07-27T01:12:33.428Z,0
2022-07-27T01:22:10.721Z,0
2022-07-27T01:31:47.433Z,0
2022-07-27T02:00:38.073Z,0
2022-07-27T02:19:52.174Z,0
2022-07-27T02:29:29.373Z,0
2022-07-27T02:48:44.275Z,0
2022-07-27T02:58:21.130Z,0
2022-07-27T03:07:57.926Z,1.67
2022-07-27T03:17:34.876Z,5.83
2022-07-27T03:27:11.934Z,11.67
2022-07-27T03:36:49.213Z,22.5
2022-07-27T03:46:26.399Z,55.83
2022-07-27T04:24:55.202Z,333.33
2022-07-27T04:34:32.749Z,440.83
2022-07-27T04:44:10.676Z,642.5
2022-07-27T04:53:52.321Z,827.5
2022-07-27T05:13:03.803Z,709.17
2022-07-27T05:22:41.731Z,1165.83
2022-07-27T05:32:19.323Z,1015.83
2022-07-27T05:41:56.953Z,979.17
2022-07-27T05:51:34.332Z,1141.67
2022-07-27T06:01:11.849Z,961.67
2022-07-27T06:10:49.077Z,1130
2022-07-27T06:20:26.805Z,1946.67
2022-07-27T06:30:05.449Z,1064.17
2022-07-27T06:39:43.833Z,2365.83
2022-07-27T06:49:21.436Z,1583.33
2022-07-27T06:58:58.249Z,1920
2022-07-27T07:08:36.544Z,2638.33
2022-07-27T07:18:13.830Z,1822.5
2022-07-27T07:27:50.822Z,1925.83
2022-07-27T07:47:08.526Z,3605
2022-07-27T07:56:46.750Z,3954.17
2022-07-27T08:16:02.664Z,3746.67
2022-07-27T08:25:40.897Z,4535
2022-07-27T08:35:20.323Z,5120
2022-07-27T08:44:58.804Z,4870.83
2022-07-27T08:54:37.254Z,5333.33
2022-07-27T09:04:14.691Z,5354.17
2022-07-27T09:13:52.851Z,6198.33
2022-07-27T09:23:30.974Z,6230
2022-07-27T09:43:06.041Z,9875.83
2022-07-27T09:52:23.806Z,7955.83
2022-07-27T10:02:04.691Z,7854.17
2022-07-27T10:11:37.508Z,4584.17
2022-07-27T10:21:12.631Z,5174.17
2022-07-27T10:30:54.392Z,9102.5
2022-07-27T10:50:18.814Z,10917.5
2022-07-27T11:00:13.499Z,6844.17
2022-07-27T11:10:05.265Z,13182.5
2022-07-27T11:19:13.939Z,12705.83
2022-07-27T11:28:52.779Z,9162.5
2022-07-27T11:38:41.136Z,9528.33
2022-07-27T11:48:09.872Z,6174.17
2022-07-27T11:57:44.596Z,7267.5
2022-07-27T12:07:22.368Z,6150
2022-07-27T12:16:58.564Z,6640
2022-07-27T12:26:37.116Z,8308.33
2022-07-27T12:45:59.061Z,5832.5
2022-07-27T13:05:07.023Z,4086.67
2022-07-27T13:14:44.696Z,5982.5
2022-07-27T13:24:21.309Z,3515.83
2022-07-27T13:33:59.274Z,4070.83
2022-07-27T13:43:40.807Z,5212.5
2022-07-27T13:53:17.106Z,2829.17
2022-07-27T14:02:52.428Z,3257.5
2022-07-27T14:12:28.927Z,2785.83
2022-07-27T14:22:07.511Z,4458.33
2022-07-27T14:31:43.942Z,3700.83
2022-07-27T14:41:20.999Z,4056.67
2022-07-27T14:50:59.065Z,3957.5
2022-07-27T15:00:38.120Z,4530
2022-07-27T15:10:40.533Z,6965
2022-07-27T15:20:09.126Z,4679.17
2022-07-27T15:29:47.896Z,7381.67
2022-07-27T15:39:27.710Z,5639.17
2022-07-27T15:49:06.719Z,3154.17
2022-07-27T15:58:40.921Z,4620.83
2022-07-27T16:08:18.770Z,4278.33
2022-07-27T16:17:55.736Z,3295.83
2022-07-27T16:27:29.855Z,1561.67
2022-07-27T16:37:04.603Z,1840
2022-07-27T16:46:41.139Z,1645
2022-07-27T16:56:17.574Z,1631.67
2022-07-27T17:15:31.174Z,1274.17
2022-07-27T17:25:07.910Z,1117.5
2022-07-27T17:34:44.281Z,980.83
2022-07-27T17:44:21.486Z,875
2022-07-27T17:53:58.341Z,779.17
2022-07-27T18:03:35.115Z,718.33
2022-07-27T18:13:11.979Z,605.83
2022-07-27T18:22:49.076Z,531.67
2022-07-27T18:32:25.505Z,411.67
2022-07-27T18:42:01.556Z,201.67
2022-07-27T19:01:15.077Z,113.33
2022-07-27T19:10:52.103Z,52.5
2022-07-27T19:20:28.657Z,17.5
2022-07-27T19:30:05.029Z,5
2022-07-27T19:39:57.626Z,1.67
2022-07-27T19:49:18.586Z,0.83
2022-07-27T19:58:54.757Z,0
2022-07-27T20:08:31.141Z,0
2022-07-27T20:18:07.506Z,0
2022-07-27T20:27:44.091Z,0
2022-07-27T20:37:20.646Z,0
2022-07-27T20:46:57.551Z,0
2022-07-27T20:56:34.169Z,0
2022-07-27T21:06:10.746Z,0
2022-07-27T21:15:47.529Z,0
2022-07-27T21:25:23.816Z,0
2022-07-27T21:44:36.882Z,0
2022-07-27T21:54:14.554Z,0
2022-07-27T22:03:50.710Z,0
2022-07-27T22:13:27.527Z,0
2022-07-27T22:23:03.793Z,0
2022-07-27T22:32:40.104Z,0
2022-07-27T22:51:54.417Z,0
2022-07-27T23:01:41.577Z,0
2022-07-27T23:20:44.316Z,0
2022-07-27T23:30:21.046Z,0
2022-07-27T23:39:58.167Z,0
2022-07-27T23:49:34.766Z,0
2022-07-27T23:59:11.762Z,0
